Sao Simao, Brazil
Current Conditions -  °F | °C
As of 11:00 AM on Sunday 23 Nov 2014 (Local Time) from SBRP Reporting Station
Overcast Overcast  
Wind Chill: 77°   Ceiling: 9000
Heat Index: 79°   Visibility: 6mi
Dew Point: 68°   Wind: 7mph
Humidity: 74%   Direction: 130°SE
Pressure: 30"   Gusts: NA
Location:  21.48°S, 47.55°W
Report Text: SBRP 231300Z 13006KT 9999 FEW020 OVC090 25/20 Q1016
Loading
Personal Weather Stations






























Interactive Weather Map New forecast layout! Learn more

10-Day Weather Forecast

Advertisements
Track Severe Weather on mobile